sensor_id;sensor_type;location;lat;lon;timestamp;P1;durP1;ratioP1;P2;durP2;ratioP2
21036;SDS011;10677;50.942;4.028;2022-08-03T00:01:20;6.20;;;1.27;;
21036;SDS011;10677;50.942;4.028;2022-08-03T00:03:46;9.07;;;1.30;;
21036;SDS011;10677;50.942;4.028;2022-08-03T00:06:12;7.25;;;1.10;;
21036;SDS011;10677;50.942;4.028;2022-08-03T00:08:37;6.30;;;1.30;;
21036;SDS011;10677;50.942;4.028;2022-08-03T00:11:03;6.35;;;1.45;;
21036;SDS011;10677;50.942;4.028;2022-08-03T00:13:30;9.38;;;1.30;;
21036;SDS011;10677;50.942;4.028;2022-08-03T00:15:57;7.13;;;1.50;;
21036;SDS011;10677;50.942;4.028;2022-08-03T00:18:22;7.32;;;1.25;;
21036;SDS011;10677;50.942;4.028;2022-08-03T00:20:48;7.82;;;1.55;;
21036;SDS011;10677;50.942;4.028;2022-08-03T00:23:14;6.03;;;1.40;;
21036;SDS011;10677;50.942;4.028;2022-08-03T00:25:40;7.95;;;1.65;;
21036;SDS011;10677;50.942;4.028;2022-08-03T00:28:05;7.40;;;1.10;;
21036;SDS011;10677;50.942;4.028;2022-08-03T00:30:31;7.10;;;1.30;;
21036;SDS011;10677;50.942;4.028;2022-08-03T00:32:57;7.65;;;1.35;;
21036;SDS011;10677;50.942;4.028;2022-08-03T00:35:24;4.28;;;1.20;;
21036;SDS011;10677;50.942;4.028;2022-08-03T00:37:49;7.00;;;1.33;;
21036;SDS011;10677;50.942;4.028;2022-08-03T00:40:16;5.43;;;1.20;;
21036;SDS011;10677;50.942;4.028;2022-08-03T00:45:20;6.32;;;1.33;;
21036;SDS011;10677;50.942;4.028;2022-08-03T00:47:47;5.85;;;1.25;;
21036;SDS011;10677;50.942;4.028;2022-08-03T00:50:13;6.55;;;1.13;;
21036;SDS011;10677;50.942;4.028;2022-08-03T00:52:39;6.60;;;1.75;;
21036;SDS011;10677;50.942;4.028;2022-08-03T00:55:05;7.72;;;1.27;;
21036;SDS011;10677;50.942;4.028;2022-08-03T00:57:31;9.05;;;1.75;;
21036;SDS011;10677;50.942;4.028;2022-08-03T00:59:57;9.50;;;1.63;;
21036;SDS011;10677;50.942;4.028;2022-08-03T01:02:29;7.40;;;1.30;;
21036;SDS011;10677;50.942;4.028;2022-08-03T01:04:55;9.77;;;1.58;;
21036;SDS011;10677;50.942;4.028;2022-08-03T01:10:12;6.55;;;1.52;;
21036;SDS011;10677;50.942;4.028;2022-08-03T01:12:51;6.85;;;1.73;;
21036;SDS011;10677;50.942;4.028;2022-08-03T01:20:30;6.68;;;1.73;;
21036;SDS011;10677;50.942;4.028;2022-08-03T01:30:52;5.47;;;1.60;;
21036;SDS011;10677;50.942;4.028;2022-08-03T01:33:27;8.60;;;1.30;;
21036;SDS011;10677;50.942;4.028;2022-08-03T01:36:02;8.05;;;1.60;;
21036;SDS011;10677;50.942;4.028;2022-08-03T01:38:43;8.15;;;1.48;;
21036;SDS011;10677;50.942;4.028;2022-08-03T01:41:23;7.43;;;1.45;;
21036;SDS011;10677;50.942;4.028;2022-08-03T01:43:50;5.68;;;1.50;;
21036;SDS011;10677;50.942;4.028;2022-08-03T01:46:19;7.60;;;1.75;;
21036;SDS011;10677;50.942;4.028;2022-08-03T01:48:47;6.38;;;1.58;;
21036;SDS011;10677;50.942;4.028;2022-08-03T01:51:14;10.27;;;1.60;;
21036;SDS011;10677;50.942;4.028;2022-08-03T01:53:42;6.90;;;1.52;;
21036;SDS011;10677;50.942;4.028;2022-08-03T01:56:09;7.65;;;1.98;;
21036;SDS011;10677;50.942;4.028;2022-08-03T01:58:36;5.80;;;1.52;;
21036;SDS011;10677;50.942;4.028;2022-08-03T02:01:04;6.82;;;1.80;;
21036;SDS011;10677;50.942;4.028;2022-08-03T02:03:33;6.95;;;1.60;;
21036;SDS011;10677;50.942;4.028;2022-08-03T02:06:02;5.75;;;1.27;;
21036;SDS011;10677;50.942;4.028;2022-08-03T02:08:29;7.13;;;1.85;;
21036;SDS011;10677;50.942;4.028;2022-08-03T02:10:56;6.65;;;1.40;;
21036;SDS011;10677;50.942;4.028;2022-08-03T02:13:23;8.30;;;1.88;;
21036;SDS011;10677;50.942;4.028;2022-08-03T02:15:50;5.90;;;1.27;;
21036;SDS011;10677;50.942;4.028;2022-08-03T02:18:17;9.23;;;1.45;;
21036;SDS011;10677;50.942;4.028;2022-08-03T02:20:45;9.02;;;1.58;;
21036;SDS011;10677;50.942;4.028;2022-08-03T02:23:11;6.15;;;1.40;;
21036;SDS011;10677;50.942;4.028;2022-08-03T02:25:40;8.73;;;1.48;;
21036;SDS011;10677;50.942;4.028;2022-08-03T02:28:10;8.35;;;1.42;;
21036;SDS011;10677;50.942;4.028;2022-08-03T02:30:45;7.22;;;1.80;;
21036;SDS011;10677;50.942;4.028;2022-08-03T02:33:17;8.50;;;1.55;;
21036;SDS011;10677;50.942;4.028;2022-08-03T02:35:47;5.88;;;1.70;;
21036;SDS011;10677;50.942;4.028;2022-08-03T02:38:15;8.10;;;1.58;;
21036;SDS011;10677;50.942;4.028;2022-08-03T02:40:44;8.57;;;2.03;;
21036;SDS011;10677;50.942;4.028;2022-08-03T02:43:11;6.97;;;1.58;;
21036;SDS011;10677;50.942;4.028;2022-08-03T02:45:43;11.50;;;2.00;;
21036;SDS011;10677;50.942;4.028;2022-08-03T02:48:12;6.70;;;1.58;;
21036;SDS011;10677;50.942;4.028;2022-08-03T02:50:41;6.32;;;1.63;;
21036;SDS011;10677;50.942;4.028;2022-08-03T02:53:08;8.15;;;1.88;;
21036;SDS011;10677;50.942;4.028;2022-08-03T02:55:36;7.38;;;1.80;;
21036;SDS011;10677;50.942;4.028;2022-08-03T02:58:04;10.23;;;2.00;;
21036;SDS011;10677;50.942;4.028;2022-08-03T03:00:31;15.52;;;3.05;;
21036;SDS011;10677;50.942;4.028;2022-08-03T03:02:58;11.77;;;1.90;;
21036;SDS011;10677;50.942;4.028;2022-08-03T03:05:26;6.47;;;1.77;;
21036;SDS011;10677;50.942;4.028;2022-08-03T03:07:53;6.57;;;1.67;;
21036;SDS011;10677;50.942;4.028;2022-08-03T03:10:20;8.75;;;2.15;;
21036;SDS011;10677;50.942;4.028;2022-08-03T03:12:47;6.90;;;2.20;;
21036;SDS011;10677;50.942;4.028;2022-08-03T03:15:15;13.23;;;1.83;;
21036;SDS011;10677;50.942;4.028;2022-08-03T03:17:41;8.10;;;2.15;;
21036;SDS011;10677;50.942;4.028;2022-08-03T03:20:08;11.43;;;2.08;;
21036;SDS011;10677;50.942;4.028;2022-08-03T03:22:34;16.23;;;2.33;;
21036;SDS011;10677;50.942;4.028;2022-08-03T03:25:01;11.38;;;1.98;;
21036;SDS011;10677;50.942;4.028;2022-08-03T03:27:26;8.45;;;2.00;;
21036;SDS011;10677;50.942;4.028;2022-08-03T03:29:53;10.10;;;1.67;;
21036;SDS011;10677;50.942;4.028;2022-08-03T03:32:18;8.70;;;2.25;;
21036;SDS011;10677;50.942;4.028;2022-08-03T03:34:44;5.65;;;1.83;;
21036;SDS011;10677;50.942;4.028;2022-08-03T03:37:10;7.20;;;1.65;;
21036;SDS011;10677;50.942;4.028;2022-08-03T03:39:36;8.20;;;1.92;;
21036;SDS011;10677;50.942;4.028;2022-08-03T03:42:02;6.38;;;1.58;;
21036;SDS011;10677;50.942;4.028;2022-08-03T03:44:28;8.70;;;2.15;;
21036;SDS011;10677;50.942;4.028;2022-08-03T03:46:55;7.47;;;1.90;;
21036;SDS011;10677;50.942;4.028;2022-08-03T03:49:22;10.15;;;2.17;;
21036;SDS011;10677;50.942;4.028;2022-08-03T03:51:48;7.65;;;2.22;;
21036;SDS011;10677;50.942;4.028;2022-08-03T03:54:17;5.30;;;1.48;;
21036;SDS011;10677;50.942;4.028;2022-08-03T03:56:43;8.05;;;2.10;;
21036;SDS011;10677;50.942;4.028;2022-08-03T03:59:09;6.70;;;1.65;;
21036;SDS011;10677;50.942;4.028;2022-08-03T04:01:34;10.88;;;2.20;;
21036;SDS011;10677;50.942;4.028;2022-08-03T04:04:00;7.35;;;1.90;;
21036;SDS011;10677;50.942;4.028;2022-08-03T04:06:46;6.22;;;1.70;;
21036;SDS011;10677;50.942;4.028;2022-08-03T04:09:30;9.77;;;2.08;;
21036;SDS011;10677;50.942;4.028;2022-08-03T04:12:16;12.02;;;2.22;;
21036;SDS011;10677;50.942;4.028;2022-08-03T04:14:43;8.73;;;2.20;;
21036;SDS011;10677;50.942;4.028;2022-08-03T04:17:12;7.30;;;2.03;;
21036;SDS011;10677;50.942;4.028;2022-08-03T04:19:40;7.05;;;2.10;;
21036;SDS011;10677;50.942;4.028;2022-08-03T04:22:09;6.50;;;2.00;;
21036;SDS011;10677;50.942;4.028;2022-08-03T04:24:45;9.00;;;2.08;;
21036;SDS011;10677;50.942;4.028;2022-08-03T04:27:19;8.95;;;1.92;;
21036;SDS011;10677;50.942;4.028;2022-08-03T04:29:48;9.93;;;2.00;;
21036;SDS011;10677;50.942;4.028;2022-08-03T04:32:17;9.60;;;2.38;;
21036;SDS011;10677;50.942;4.028;2022-08-03T04:34:44;8.30;;;2.10;;
21036;SDS011;10677;50.942;4.028;2022-08-03T04:37:11;9.38;;;2.10;;
21036;SDS011;10677;50.942;4.028;2022-08-03T04:39:42;6.88;;;1.73;;
21036;SDS011;10677;50.942;4.028;2022-08-03T04:42:11;9.05;;;2.38;;
21036;SDS011;10677;50.942;4.028;2022-08-03T04:44:39;11.10;;;2.53;;
21036;SDS011;10677;50.942;4.028;2022-08-03T04:47:07;9.20;;;2.40;;
21036;SDS011;10677;50.942;4.028;2022-08-03T04:49:36;11.63;;;2.30;;
21036;SDS011;10677;50.942;4.028;2022-08-03T04:52:02;9.02;;;2.47;;
21036;SDS011;10677;50.942;4.028;2022-08-03T04:54:29;7.82;;;2.33;;
21036;SDS011;10677;50.942;4.028;2022-08-03T04:56:55;6.28;;;1.98;;
21036;SDS011;10677;50.942;4.028;2022-08-03T04:59:20;9.57;;;2.25;;
21036;SDS011;10677;50.942;4.028;2022-08-03T05:01:46;8.27;;;2.28;;
21036;SDS011;10677;50.942;4.028;2022-08-03T05:04:11;10.23;;;2.33;;
21036;SDS011;10677;50.942;4.028;2022-08-03T05:06:37;6.72;;;2.20;;
21036;SDS011;10677;50.942;4.028;2022-08-03T05:09:03;8.30;;;2.80;;
21036;SDS011;10677;50.942;4.028;2022-08-03T05:11:28;7.20;;;2.05;;
21036;SDS011;10677;50.942;4.028;2022-08-03T05:13:54;9.05;;;2.00;;
21036;SDS011;10677;50.942;4.028;2022-08-03T05:16:20;6.55;;;2.08;;
21036;SDS011;10677;50.942;4.028;2022-08-03T05:18:45;10.82;;;2.50;;
21036;SDS011;10677;50.942;4.028;2022-08-03T05:21:11;8.90;;;2.20;;
21036;SDS011;10677;50.942;4.028;2022-08-03T05:23:38;9.85;;;2.33;;
21036;SDS011;10677;50.942;4.028;2022-08-03T05:26:05;9.40;;;2.22;;
21036;SDS011;10677;50.942;4.028;2022-08-03T05:28:30;9.50;;;2.42;;
21036;SDS011;10677;50.942;4.028;2022-08-03T05:30:56;12.30;;;2.45;;
21036;SDS011;10677;50.942;4.028;2022-08-03T05:33:22;7.18;;;2.05;;
21036;SDS011;10677;50.942;4.028;2022-08-03T05:35:47;7.90;;;2.13;;
21036;SDS011;10677;50.942;4.028;2022-08-03T05:38:13;7.65;;;2.00;;
21036;SDS011;10677;50.942;4.028;2022-08-03T05:40:39;7.40;;;2.17;;
21036;SDS011;10677;50.942;4.028;2022-08-03T05:43:05;8.13;;;2.08;;
21036;SDS011;10677;50.942;4.028;2022-08-03T05:45:31;10.63;;;2.05;;
21036;SDS011;10677;50.942;4.028;2022-08-03T05:47:56;9.27;;;2.15;;
21036;SDS011;10677;50.942;4.028;2022-08-03T05:50:22;6.90;;;1.75;;
21036;SDS011;10677;50.942;4.028;2022-08-03T05:52:48;8.98;;;1.90;;
21036;SDS011;10677;50.942;4.028;2022-08-03T05:55:13;9.48;;;2.58;;
21036;SDS011;10677;50.942;4.028;2022-08-03T05:57:39;7.38;;;1.88;;
21036;SDS011;10677;50.942;4.028;2022-08-03T06:00:06;9.55;;;1.85;;
21036;SDS011;10677;50.942;4.028;2022-08-03T06:02:33;8.55;;;2.05;;
21036;SDS011;10677;50.942;4.028;2022-08-03T06:05:00;7.30;;;2.10;;
21036;SDS011;10677;50.942;4.028;2022-08-03T06:07:26;8.27;;;1.77;;
21036;SDS011;10677;50.942;4.028;2022-08-03T06:09:52;11.10;;;2.33;;
21036;SDS011;10677;50.942;4.028;2022-08-03T06:12:18;9.63;;;1.67;;
21036;SDS011;10677;50.942;4.028;2022-08-03T06:14:44;9.23;;;2.13;;
21036;SDS011;10677;50.942;4.028;2022-08-03T06:17:10;7.72;;;2.10;;
21036;SDS011;10677;50.942;4.028;2022-08-03T06:19:35;4.43;;;1.73;;
21036;SDS011;10677;50.942;4.028;2022-08-03T06:22:01;7.82;;;1.67;;
21036;SDS011;10677;50.942;4.028;2022-08-03T06:24:27;6.05;;;1.60;;
21036;SDS011;10677;50.942;4.028;2022-08-03T06:26:52;7.55;;;1.52;;
21036;SDS011;10677;50.942;4.028;2022-08-03T06:29:18;8.27;;;1.60;;
21036;SDS011;10677;50.942;4.028;2022-08-03T06:31:44;11.80;;;1.92;;
21036;SDS011;10677;50.942;4.028;2022-08-03T06:34:09;9.63;;;1.85;;
21036;SDS011;10677;50.942;4.028;2022-08-03T06:36:35;7.28;;;1.65;;
21036;SDS011;10677;50.942;4.028;2022-08-03T06:39:01;14.30;;;1.73;;
21036;SDS011;10677;50.942;4.028;2022-08-03T06:41:27;9.00;;;1.70;;
21036;SDS011;10677;50.942;4.028;2022-08-03T06:43:53;8.18;;;1.60;;
21036;SDS011;10677;50.942;4.028;2022-08-03T06:46:19;6.38;;;1.52;;
21036;SDS011;10677;50.942;4.028;2022-08-03T06:48:46;9.32;;;1.85;;
21036;SDS011;10677;50.942;4.028;2022-08-03T06:51:12;8.80;;;1.77;;
21036;SDS011;10677;50.942;4.028;2022-08-03T06:53:37;8.82;;;1.80;;
21036;SDS011;10677;50.942;4.028;2022-08-03T06:56:03;6.78;;;1.60;;
21036;SDS011;10677;50.942;4.028;2022-08-03T06:58:29;6.68;;;1.48;;
21036;SDS011;10677;50.942;4.028;2022-08-03T07:00:55;6.80;;;1.35;;
21036;SDS011;10677;50.942;4.028;2022-08-03T07:03:21;4.55;;;1.40;;
21036;SDS011;10677;50.942;4.028;2022-08-03T07:05:46;14.48;;;1.80;;
21036;SDS011;10677;50.942;4.028;2022-08-03T07:08:13;6.65;;;1.77;;
21036;SDS011;10677;50.942;4.028;2022-08-03T07:10:39;10.25;;;2.00;;
21036;SDS011;10677;50.942;4.028;2022-08-03T07:13:05;10.60;;;1.65;;
21036;SDS011;10677;50.942;4.028;2022-08-03T07:15:31;12.25;;;1.85;;
21036;SDS011;10677;50.942;4.028;2022-08-03T07:17:57;7.50;;;1.83;;
21036;SDS011;10677;50.942;4.028;2022-08-03T07:20:23;9.00;;;1.48;;
21036;SDS011;10677;50.942;4.028;2022-08-03T07:22:48;10.55;;;1.90;;
21036;SDS011;10677;50.942;4.028;2022-08-03T07:25:14;12.95;;;1.52;;
21036;SDS011;10677;50.942;4.028;2022-08-03T07:27:43;10.10;;;1.75;;
21036;SDS011;10677;50.942;4.028;2022-08-03T07:30:10;7.28;;;1.70;;
21036;SDS011;10677;50.942;4.028;2022-08-03T07:32:36;10.40;;;2.53;;
21036;SDS011;10677;50.942;4.028;2022-08-03T07:35:03;8.18;;;1.20;;
21036;SDS011;10677;50.942;4.028;2022-08-03T07:37:30;7.93;;;1.98;;
21036;SDS011;10677;50.942;4.028;2022-08-03T07:39:57;10.70;;;1.45;;
21036;SDS011;10677;50.942;4.028;2022-08-03T07:42:23;11.40;;;1.77;;
21036;SDS011;10677;50.942;4.028;2022-08-03T07:44:49;9.43;;;1.60;;
21036;SDS011;10677;50.942;4.028;2022-08-03T07:47:19;9.10;;;1.60;;
21036;SDS011;10677;50.942;4.028;2022-08-03T07:49:48;6.85;;;1.35;;
21036;SDS011;10677;50.942;4.028;2022-08-03T07:52:14;7.22;;;1.70;;
21036;SDS011;10677;50.942;4.028;2022-08-03T07:54:58;10.68;;;1.88;;
21036;SDS011;10677;50.942;4.028;2022-08-03T07:57:24;8.85;;;1.60;;
21036;SDS011;10677;50.942;4.028;2022-08-03T07:59:49;8.43;;;2.10;;
21036;SDS011;10677;50.942;4.028;2022-08-03T08:02:15;6.78;;;1.58;;
21036;SDS011;10677;50.942;4.028;2022-08-03T08:04:41;10.80;;;1.70;;
21036;SDS011;10677;50.942;4.028;2022-08-03T08:07:06;14.18;;;1.60;;
21036;SDS011;10677;50.942;4.028;2022-08-03T08:09:32;9.18;;;1.85;;
21036;SDS011;10677;50.942;4.028;2022-08-03T08:11:58;12.43;;;1.80;;
21036;SDS011;10677;50.942;4.028;2022-08-03T08:14:24;11.63;;;1.58;;
21036;SDS011;10677;50.942;4.028;2022-08-03T08:16:49;8.43;;;2.10;;
21036;SDS011;10677;50.942;4.028;2022-08-03T08:19:15;12.98;;;2.25;;
21036;SDS011;10677;50.942;4.028;2022-08-03T08:21:42;9.85;;;2.20;;
21036;SDS011;10677;50.942;4.028;2022-08-03T08:24:08;8.88;;;1.98;;
21036;SDS011;10677;50.942;4.028;2022-08-03T08:26:33;14.85;;;2.15;;
21036;SDS011;10677;50.942;4.028;2022-08-03T08:28:59;13.48;;;2.42;;
21036;SDS011;10677;50.942;4.028;2022-08-03T08:31:25;9.00;;;1.65;;
21036;SDS011;10677;50.942;4.028;2022-08-03T08:33:51;14.38;;;2.08;;
21036;SDS011;10677;50.942;4.028;2022-08-03T08:36:16;8.77;;;1.73;;
21036;SDS011;10677;50.942;4.028;2022-08-03T08:38:42;7.25;;;1.40;;
21036;SDS011;10677;50.942;4.028;2022-08-03T08:41:14;10.20;;;1.95;;
21036;SDS011;10677;50.942;4.028;2022-08-03T08:43:40;8.05;;;1.70;;
21036;SDS011;10677;50.942;4.028;2022-08-03T08:46:07;5.88;;;1.60;;
21036;SDS011;10677;50.942;4.028;2022-08-03T08:48:39;10.60;;;1.55;;
21036;SDS011;10677;50.942;4.028;2022-08-03T08:51:06;12.90;;;1.77;;
21036;SDS011;10677;50.942;4.028;2022-08-03T08:53:35;10.55;;;1.45;;
21036;SDS011;10677;50.942;4.028;2022-08-03T08:56:02;9.57;;;1.55;;
21036;SDS011;10677;50.942;4.028;2022-08-03T08:58:29;8.35;;;1.98;;
21036;SDS011;10677;50.942;4.028;2022-08-03T09:01:02;10.63;;;1.80;;
21036;SDS011;10677;50.942;4.028;2022-08-03T09:03:28;9.57;;;1.60;;
21036;SDS011;10677;50.942;4.028;2022-08-03T09:05:54;9.07;;;2.08;;
21036;SDS011;10677;50.942;4.028;2022-08-03T09:08:20;14.02;;;2.42;;
21036;SDS011;10677;50.942;4.028;2022-08-03T09:10:47;6.38;;;1.50;;
21036;SDS011;10677;50.942;4.028;2022-08-03T09:13:12;8.35;;;1.30;;
21036;SDS011;10677;50.942;4.028;2022-08-03T09:15:38;9.77;;;1.38;;
21036;SDS011;10677;50.942;4.028;2022-08-03T09:18:06;9.20;;;2.15;;
21036;SDS011;10677;50.942;4.028;2022-08-03T09:20:33;9.50;;;1.50;;
21036;SDS011;10677;50.942;4.028;2022-08-03T09:23:05;7.43;;;1.70;;
21036;SDS011;10677;50.942;4.028;2022-08-03T09:25:40;10.32;;;1.50;;
21036;SDS011;10677;50.942;4.028;2022-08-03T09:28:08;8.63;;;1.63;;
21036;SDS011;10677;50.942;4.028;2022-08-03T09:30:41;10.27;;;1.50;;
21036;SDS011;10677;50.942;4.028;2022-08-03T09:33:14;12.38;;;1.50;;
21036;SDS011;10677;50.942;4.028;2022-08-03T09:35:41;10.43;;;1.38;;
21036;SDS011;10677;50.942;4.028;2022-08-03T09:38:12;9.18;;;1.42;;
21036;SDS011;10677;50.942;4.028;2022-08-03T09:40:39;8.93;;;1.52;;
21036;SDS011;10677;50.942;4.028;2022-08-03T09:43:05;5.85;;;1.83;;
21036;SDS011;10677;50.942;4.028;2022-08-03T09:45:32;8.52;;;1.33;;
21036;SDS011;10677;50.942;4.028;2022-08-03T09:53:16;4.55;;;1.23;;
21036;SDS011;10677;50.942;4.028;2022-08-03T09:55:49;6.30;;;1.40;;
21036;SDS011;10677;50.942;4.028;2022-08-03T09:58:22;8.35;;;1.40;;
21036;SDS011;10677;50.942;4.028;2022-08-03T10:01:00;7.60;;;1.52;;
21036;SDS011;10677;50.942;4.028;2022-08-03T10:03:34;5.05;;;1.10;;
21036;SDS011;10677;50.942;4.028;2022-08-03T10:06:14;6.85;;;1.40;;
21036;SDS011;10677;50.942;4.028;2022-08-03T10:08:40;10.20;;;1.30;;
21036;SDS011;10677;50.942;4.028;2022-08-03T10:11:06;7.72;;;1.70;;
21036;SDS011;10677;50.942;4.028;2022-08-03T10:13:32;6.55;;;1.10;;
21036;SDS011;10677;50.942;4.028;2022-08-03T10:15:58;8.65;;;1.83;;
21036;SDS011;10677;50.942;4.028;2022-08-03T10:18:23;7.32;;;1.20;;
21036;SDS011;10677;50.942;4.028;2022-08-03T10:20:52;10.07;;;2.10;;
21036;SDS011;10677;50.942;4.028;2022-08-03T10:23:22;6.22;;;1.63;;
21036;SDS011;10677;50.942;4.028;2022-08-03T10:25:50;4.47;;;1.17;;
21036;SDS011;10677;50.942;4.028;2022-08-03T10:28:18;9.88;;;1.73;;
21036;SDS011;10677;50.942;4.028;2022-08-03T10:30:50;6.00;;;1.10;;
21036;SDS011;10677;50.942;4.028;2022-08-03T10:33:20;5.53;;;1.23;;
21036;SDS011;10677;50.942;4.028;2022-08-03T10:35:53;11.85;;;1.75;;
21036;SDS011;10677;50.942;4.028;2022-08-03T10:38:22;6.28;;;1.30;;
21036;SDS011;10677;50.942;4.028;2022-08-03T10:40:54;7.55;;;1.05;;
21036;SDS011;10677;50.942;4.028;2022-08-03T10:43:24;7.78;;;1.75;;
21036;SDS011;10677;50.942;4.028;2022-08-03T10:45:53;6.03;;;1.05;;
21036;SDS011;10677;50.942;4.028;2022-08-03T10:48:20;5.65;;;1.42;;
21036;SDS011;10677;50.942;4.028;2022-08-03T10:50:47;8.32;;;1.30;;
21036;SDS011;10677;50.942;4.028;2022-08-03T10:53:32;6.15;;;0.93;;
21036;SDS011;10677;50.942;4.028;2022-08-03T10:56:02;7.32;;;1.48;;
21036;SDS011;10677;50.942;4.028;2022-08-03T10:58:53;6.65;;;0.95;;
21036;SDS011;10677;50.942;4.028;2022-08-03T11:01:48;6.30;;;1.30;;
21036;SDS011;10677;50.942;4.028;2022-08-03T11:04:14;6.55;;;0.80;;
21036;SDS011;10677;50.942;4.028;2022-08-03T11:06:41;6.00;;;0.95;;
21036;SDS011;10677;50.942;4.028;2022-08-03T11:11:34;5.07;;;0.93;;
21036;SDS011;10677;50.942;4.028;2022-08-03T11:19:08;8.30;;;1.20;;
21036;SDS011;10677;50.942;4.028;2022-08-03T11:24:56;2.85;;;0.70;;
21036;SDS011;10677;50.942;4.028;2022-08-03T11:35:11;5.40;;;0.70;;
21036;SDS011;10677;50.942;4.028;2022-08-03T11:43:09;4.15;;;0.70;;
21036;SDS011;10677;50.942;4.028;2022-08-03T11:46:07;4.35;;;1.30;;
21036;SDS011;10677;50.942;4.028;2022-08-03T11:48:42;1.90;;;0.90;;
21036;SDS011;10677;50.942;4.028;2022-08-03T11:53:57;6.72;;;0.60;;
21036;SDS011;10677;50.942;4.028;2022-08-03T11:56:24;3.70;;;0.75;;
21036;SDS011;10677;50.942;4.028;2022-08-03T11:58:51;3.10;;;0.60;;
21036;SDS011;10677;50.942;4.028;2022-08-03T12:01:22;5.22;;;0.95;;
21036;SDS011;10677;50.942;4.028;2022-08-03T12:03:48;2.03;;;0.60;;
21036;SDS011;10677;50.942;4.028;2022-08-03T12:06:15;7.50;;;0.73;;
21036;SDS011;10677;50.942;4.028;2022-08-03T12:08:42;4.07;;;0.73;;
21036;SDS011;10677;50.942;4.028;2022-08-03T12:11:10;7.53;;;0.82;;
21036;SDS011;10677;50.942;4.028;2022-08-03T12:13:39;5.65;;;0.60;;
21036;SDS011;10677;50.942;4.028;2022-08-03T12:16:04;2.97;;;0.68;;
21036;SDS011;10677;50.942;4.028;2022-08-03T12:18:30;7.15;;;0.88;;
21036;SDS011;10677;50.942;4.028;2022-08-03T12:21:03;3.75;;;0.80;;
21036;SDS011;10677;50.942;4.028;2022-08-03T12:23:31;2.40;;;0.75;;
21036;SDS011;10677;50.942;4.028;2022-08-03T12:26:01;9.38;;;0.75;;
21036;SDS011;10677;50.942;4.028;2022-08-03T12:28:28;4.60;;;0.88;;
21036;SDS011;10677;50.942;4.028;2022-08-03T12:30:54;2.97;;;0.95;;
21036;SDS011;10677;50.942;4.028;2022-08-03T12:33:24;5.70;;;0.73;;
21036;SDS011;10677;50.942;4.028;2022-08-03T12:36:06;5.18;;;0.73;;
21036;SDS011;10677;50.942;4.028;2022-08-03T12:38:34;4.55;;;0.85;;
21036;SDS011;10677;50.942;4.028;2022-08-03T12:41:05;5.07;;;0.80;;
21036;SDS011;10677;50.942;4.028;2022-08-03T12:43:33;4.25;;;1.08;;
21036;SDS011;10677;50.942;4.028;2022-08-03T12:46:06;2.58;;;0.85;;
21036;SDS011;10677;50.942;4.028;2022-08-03T12:48:33;4.78;;;0.70;;
21036;SDS011;10677;50.942;4.028;2022-08-03T12:51:08;4.82;;;0.60;;
21036;SDS011;10677;50.942;4.028;2022-08-03T12:53:35;4.90;;;0.75;;
21036;SDS011;10677;50.942;4.028;2022-08-03T12:56:01;7.72;;;0.90;;
21036;SDS011;10677;50.942;4.028;2022-08-03T12:58:29;5.88;;;1.33;;
21036;SDS011;10677;50.942;4.028;2022-08-03T13:00:57;3.58;;;0.70;;
21036;SDS011;10677;50.942;4.028;2022-08-03T13:03:23;4.38;;;0.57;;
21036;SDS011;10677;50.942;4.028;2022-08-03T13:05:49;5.63;;;1.10;;
21036;SDS011;10677;50.942;4.028;2022-08-03T13:08:18;9.65;;;1.00;;
21036;SDS011;10677;50.942;4.028;2022-08-03T13:10:45;2.92;;;0.70;;
21036;SDS011;10677;50.942;4.028;2022-08-03T13:13:11;5.38;;;0.70;;
21036;SDS011;10677;50.942;4.028;2022-08-03T13:15:37;5.47;;;0.98;;
21036;SDS011;10677;50.942;4.028;2022-08-03T13:18:02;5.30;;;0.82;;
21036;SDS011;10677;50.942;4.028;2022-08-03T13:20:28;7.07;;;0.73;;
21036;SDS011;10677;50.942;4.028;2022-08-03T13:22:54;5.25;;;0.65;;
21036;SDS011;10677;50.942;4.028;2022-08-03T13:25:20;4.38;;;0.73;;
21036;SDS011;10677;50.942;4.028;2022-08-03T13:27:46;3.17;;;0.70;;
21036;SDS011;10677;50.942;4.028;2022-08-03T13:30:12;4.68;;;1.13;;
21036;SDS011;10677;50.942;4.028;2022-08-03T13:32:39;4.05;;;0.73;;
21036;SDS011;10677;50.942;4.028;2022-08-03T13:35:05;2.67;;;0.68;;
21036;SDS011;10677;50.942;4.028;2022-08-03T13:37:31;5.13;;;1.15;;
21036;SDS011;10677;50.942;4.028;2022-08-03T13:39:57;5.25;;;0.88;;
21036;SDS011;10677;50.942;4.028;2022-08-03T13:42:23;2.38;;;0.82;;
21036;SDS011;10677;50.942;4.028;2022-08-03T13:44:49;4.25;;;0.70;;
21036;SDS011;10677;50.942;4.028;2022-08-03T13:47:15;3.88;;;1.08;;
21036;SDS011;10677;50.942;4.028;2022-08-03T13:49:41;4.63;;;1.17;;
21036;SDS011;10677;50.942;4.028;2022-08-03T13:52:06;3.60;;;0.80;;
21036;SDS011;10677;50.942;4.028;2022-08-03T13:54:32;2.40;;;0.75;;
21036;SDS011;10677;50.942;4.028;2022-08-03T13:56:58;5.35;;;0.98;;
21036;SDS011;10677;50.942;4.028;2022-08-03T13:59:24;6.30;;;0.73;;
21036;SDS011;10677;50.942;4.028;2022-08-03T14:01:50;3.13;;;0.77;;
21036;SDS011;10677;50.942;4.028;2022-08-03T14:04:17;9.73;;;1.20;;
21036;SDS011;10677;50.942;4.028;2022-08-03T14:06:43;3.92;;;0.95;;
21036;SDS011;10677;50.942;4.028;2022-08-03T14:09:12;6.90;;;0.80;;
21036;SDS011;10677;50.942;4.028;2022-08-03T14:11:42;4.43;;;0.80;;
21036;SDS011;10677;50.942;4.028;2022-08-03T14:14:08;5.10;;;0.75;;
21036;SDS011;10677;50.942;4.028;2022-08-03T14:16:35;5.78;;;0.90;;
21036;SDS011;10677;50.942;4.028;2022-08-03T14:19:01;2.35;;;0.70;;
21036;SDS011;10677;50.942;4.028;2022-08-03T14:21:27;4.82;;;0.70;;
21036;SDS011;10677;50.942;4.028;2022-08-03T14:23:54;5.95;;;0.95;;
21036;SDS011;10677;50.942;4.028;2022-08-03T14:26:20;7.45;;;1.40;;
21036;SDS011;10677;50.942;4.028;2022-08-03T14:28:46;5.78;;;0.90;;
21036;SDS011;10677;50.942;4.028;2022-08-03T14:31:12;3.97;;;0.70;;
21036;SDS011;10677;50.942;4.028;2022-08-03T14:33:38;3.15;;;0.90;;
21036;SDS011;10677;50.942;4.028;2022-08-03T14:36:04;6.05;;;0.90;;
21036;SDS011;10677;50.942;4.028;2022-08-03T14:38:30;6.13;;;1.13;;
21036;SDS011;10677;50.942;4.028;2022-08-03T14:40:56;3.05;;;0.85;;
21036;SDS011;10677;50.942;4.028;2022-08-03T14:43:22;5.28;;;0.88;;
21036;SDS011;10677;50.942;4.028;2022-08-03T14:45:48;2.50;;;0.70;;
21036;SDS011;10677;50.942;4.028;2022-08-03T14:48:17;4.90;;;0.75;;
21036;SDS011;10677;50.942;4.028;2022-08-03T14:50:43;3.65;;;0.60;;
21036;SDS011;10677;50.942;4.028;2022-08-03T14:53:09;1.98;;;0.60;;
21036;SDS011;10677;50.942;4.028;2022-08-03T14:55:35;2.65;;;0.63;;
21036;SDS011;10677;50.942;4.028;2022-08-03T14:58:01;4.40;;;0.60;;
21036;SDS011;10677;50.942;4.028;2022-08-03T15:00:30;5.38;;;1.02;;
21036;SDS011;10677;50.942;4.028;2022-08-03T15:02:56;3.92;;;0.77;;
21036;SDS011;10677;50.942;4.028;2022-08-03T15:05:22;1.52;;;0.73;;
21036;SDS011;10677;50.942;4.028;2022-08-03T15:07:48;2.47;;;0.70;;
21036;SDS011;10677;50.942;4.028;2022-08-03T15:10:14;3.30;;;0.85;;
21036;SDS011;10677;50.942;4.028;2022-08-03T15:12:39;3.90;;;1.13;;
21036;SDS011;10677;50.942;4.028;2022-08-03T15:15:05;4.57;;;0.73;;
21036;SDS011;10677;50.942;4.028;2022-08-03T15:17:31;5.80;;;0.80;;
21036;SDS011;10677;50.942;4.028;2022-08-03T15:19:56;3.95;;;0.98;;
21036;SDS011;10677;50.942;4.028;2022-08-03T15:22:22;3.08;;;0.70;;
21036;SDS011;10677;50.942;4.028;2022-08-03T15:24:48;7.28;;;1.08;;
21036;SDS011;10677;50.942;4.028;2022-08-03T15:27:13;3.97;;;0.80;;
21036;SDS011;10677;50.942;4.028;2022-08-03T15:29:39;3.08;;;0.88;;
21036;SDS011;10677;50.942;4.028;2022-08-03T15:32:05;5.63;;;0.90;;
21036;SDS011;10677;50.942;4.028;2022-08-03T15:34:30;2.80;;;1.00;;
21036;SDS011;10677;50.942;4.028;2022-08-03T15:36:56;2.42;;;0.70;;
21036;SDS011;10677;50.942;4.028;2022-08-03T15:39:22;6.57;;;0.80;;